Time;durP1;ratioP1;P1;durP2;ratioP2;P2;SDS_P1;SDS_P2;PMS_P1;PMS_P2;Temp;Humidity;BMP_temperature;BMP_pressure;BME280_temperature;BME280_humidity;BME280_pressure;Samples;Min_cycle;Max_cycle;Signal;HPM_P1;HPM_P2
2023/01/01 00:00:47;;;;;;;4.13;2.57;;;;;;;18.44;53.76;100577.44;4903393;28;97134;-52
2023/01/01 00:03:13;;;;;;;11.50;3.27;;;;;;;18.45;53.71;100567.81;4903148;28;97347;-51
2023/01/01 00:05:38;;;;;;;6.33;3.90;;;;;;;18.46;53.81;100572.06;4904927;28;97656;-52
2023/01/01 00:08:04;;;;;;;4.27;3.10;;;;;;;18.47;53.95;100579.16;4903716;28;96613;-51
2023/01/01 00:10:29;;;;;;;6.30;3.00;;;;;;;18.48;53.18;100580.63;4904431;28;96691;-52
2023/01/01 00:12:56;;;;;;;4.10;2.70;;;;;;;18.49;53.47;100576.56;4901994;28;97033;-51
2023/01/01 00:15:21;;;;;;;4.70;3.00;;;;;;;18.49;53.38;100582.13;4905210;28;97372;-51
2023/01/01 00:17:47;;;;;;;3.90;3.47;;;;;;;18.49;53.31;100584.91;4902245;28;97534;-52
2023/01/01 00:20:13;;;;;;;6.30;3.60;;;;;;;18.49;53.42;100582.13;4902306;28;97084;-52
2023/01/01 00:22:38;;;;;;;4.90;3.07;;;;;;;18.50;53.30;100583.63;4897216;28;97955;-52
2023/01/01 00:25:05;;;;;;;9.07;3.60;;;;;;;18.51;53.45;100585.88;4902437;28;97240;-52
2023/01/01 00:27:30;;;;;;;6.57;3.80;;;;;;;18.52;53.46;100590.13;4892802;28;97521;-51
2023/01/01 00:29:55;;;;;;;10.80;3.93;;;;;;;18.53;53.28;100588.09;4903171;28;97245;-51
2023/01/01 00:32:21;;;;;;;8.43;3.27;;;;;;;18.53;52.95;100591.63;4904874;28;96931;-52
2023/01/01 00:34:46;;;;;;;5.30;3.50;;;;;;;18.53;52.78;100582.53;4904362;28;97643;-52
2023/01/01 00:37:13;;;;;;;5.13;3.57;;;;;;;18.54;52.91;100592.38;4902897;28;97250;-51
2023/01/01 00:39:39;;;;;;;4.80;3.43;;;;;;;18.55;53.16;100591.81;4903087;28;96913;-51
2023/01/01 00:42:04;;;;;;;4.40;3.30;;;;;;;18.56;53.18;100584.97;4903568;28;97468;-52
2023/01/01 00:44:29;;;;;;;5.03;3.03;;;;;;;18.57;52.74;100588.47;4905241;28;97786;-52
2023/01/01 00:46:55;;;;;;;5.03;3.40;;;;;;;18.58;53.02;100590.00;4903969;28;97165;-52
2023/01/01 00:49:20;;;;;;;6.13;2.97;;;;;;;18.57;53.00;100589.25;4903079;28;98427;-51
2023/01/01 00:51:45;;;;;;;5.83;3.47;;;;;;;18.57;52.81;100605.19;4904835;28;97603;-51
2023/01/01 00:54:11;;;;;;;6.63;3.17;;;;;;;18.57;52.70;100602.41;4906069;28;96744;-51
2023/01/01 00:56:36;;;;;;;6.47;3.30;;;;;;;18.57;52.77;100594.81;4905111;28;97066;-51
2023/01/01 00:59:01;;;;;;;5.43;3.50;;;;;;;18.58;52.62;100582.38;4906205;28;97481;-51
2023/01/01 01:01:27;;;;;;;8.53;3.60;;;;;;;18.59;52.70;100586.66;4901502;28;97284;-52
2023/01/01 01:03:52;;;;;;;6.00;3.70;;;;;;;18.60;52.73;100584.59;4905438;28;97235;-51
2023/01/01 01:06:17;;;;;;;8.13;3.93;;;;;;;18.60;52.69;100593.72;4905016;28;97218;-56
2023/01/01 01:08:45;;;;;;;5.03;3.67;;;;;;;18.61;52.40;100591.66;4902560;28;97393;-51
2023/01/01 01:11:21;;;;;;;4.77;3.07;;;;;;;18.61;52.61;100597.97;4903720;28;98204;-51
2023/01/01 01:13:48;;;;;;;7.10;3.70;;;;;;;18.61;52.57;100595.19;4900709;28;100209;-52
2023/01/01 01:16:16;;;;;;;6.77;3.63;;;;;;;18.62;52.44;100593.16;4904393;28;97364;-51
2023/01/01 01:18:42;;;;;;;5.27;3.43;;;;;;;18.62;52.20;100590.38;4899322;28;96695;-52
2023/01/01 01:21:07;;;;;;;5.23;3.47;;;;;;;18.60;52.30;100590.94;4905636;28;96986;-52
2023/01/01 01:23:33;;;;;;;5.60;3.10;;;;;;;18.64;52.28;100610.06;4905711;28;98584;-51
2023/01/01 01:26:07;;;;;;;5.13;3.50;;;;;;;18.62;50.38;100616.22;4904103;28;97159;-52
2023/01/01 01:28:33;;;;;;;6.90;3.07;;;;;;;18.63;52.41;100614.19;4906273;28;97508;-52
2023/01/01 01:30:59;;;;;;;5.93;3.70;;;;;;;18.64;51.98;100604.50;4905650;28;97129;-51
2023/01/01 01:33:24;;;;;;;6.43;3.43;;;;;;;18.65;52.16;100614.38;4902873;28;98123;-51
2023/01/01 01:35:53;;;;;;;3.57;3.07;;;;;;;18.66;51.98;100618.63;4905630;28;97567;-52
2023/01/01 01:38:19;;;;;;;5.53;2.93;;;;;;;18.67;52.21;100609.00;4904604;28;96816;-52
2023/01/01 01:40:44;;;;;;;5.53;3.30;;;;;;;18.64;51.96;100619.19;4905594;28;97392;-52
2023/01/01 01:43:22;;;;;;;7.40;3.50;;;;;;;18.64;51.05;100598.94;4906457;28;97607;-52
2023/01/01 01:45:48;;;;;;;7.23;3.40;;;;;;;18.63;52.09;100603.03;4904066;28;97532;-51
2023/01/01 01:48:13;;;;;;;4.50;3.17;;;;;;;18.63;51.90;100622.53;4906072;28;97457;-52
2023/01/01 01:50:43;;;;;;;6.13;3.97;;;;;;;18.64;51.61;100610.06;4901949;28;97714;-51
2023/01/01 01:53:19;;;;;;;5.37;3.00;;;;;;;18.65;51.00;100611.59;4904743;28;97138;-51
2023/01/01 01:55:50;;;;;;;7.80;3.40;;;;;;;18.69;51.08;100615.50;4906095;28;97095;-52
2023/01/01 01:58:16;;;;;;;6.23;3.47;;;;;;;18.68;52.01;100613.25;4905078;28;96795;-51
2023/01/01 02:00:42;;;;;;;5.27;2.97;;;;;;;18.69;52.16;100618.28;4905273;28;96941;-52
2023/01/01 02:03:16;;;;;;;4.80;2.97;;;;;;;18.67;51.83;100611.78;4905890;28;97863;-52
2023/01/01 02:05:42;;;;;;;8.87;3.77;;;;;;;18.65;51.91;100612.31;4905645;28;97033;-51
2023/01/01 02:08:10;;;;;;;6.30;3.70;;;;;;;18.69;52.05;100620.34;4904848;28;96830;-51
2023/01/01 02:10:36;;;;;;;7.80;3.40;;;;;;;18.69;51.95;100615.50;4904227;28;97427;-52
2023/01/01 02:13:02;;;;;;;3.53;3.13;;;;;;;18.69;52.00;100606.41;4906221;28;98023;-52
2023/01/01 02:15:33;;;;;;;6.03;3.67;;;;;;;18.69;51.75;100600.81;4905170;28;96897;-51
2023/01/01 02:18:15;;;;;;;6.73;3.90;;;;;;;18.68;50.90;100604.88;4904262;28;96974;-52
2023/01/01 02:20:52;;;;;;;8.83;3.57;;;;;;;18.66;50.92;100608.25;4902422;28;100982;-51
2023/01/01 02:23:39;;;;;;;4.30;3.33;;;;;;;18.67;49.97;100609.72;4903820;28;101510;-51
2023/01/01 02:26:17;;;;;;;7.87;4.40;;;;;;;18.66;51.36;100618.63;4904543;28;97238;-52
2023/01/01 02:28:42;;;;;;;6.67;3.80;;;;;;;18.62;51.74;100621.03;4905393;28;97444;-53
2023/01/01 02:31:12;;;;;;;7.13;4.13;;;;;;;18.64;51.91;100618.44;4907711;28;97513;-51
2023/01/01 02:33:39;;;;;;;8.80;3.60;;;;;;;18.63;51.99;100616.97;4904226;28;97476;-52
2023/01/01 02:36:07;;;;;;;10.13;4.87;;;;;;;18.64;51.77;100621.22;4908752;28;97634;-52
2023/01/01 02:38:40;;;;;;;6.00;3.47;;;;;;;18.62;49.97;100623.81;4906377;28;97269;-51
2023/01/01 02:41:10;;;;;;;11.20;4.00;;;;;;;18.63;51.85;100653.19;4908245;28;97418;-53
2023/01/01 02:43:37;;;;;;;6.10;4.37;;;;;;;18.63;52.12;100636.47;4906143;28;98326;-53
2023/01/01 02:46:07;;;;;;;8.30;4.57;;;;;;;18.63;51.60;100642.75;4907607;28;97337;-51
2023/01/01 02:48:40;;;;;;;5.03;3.60;;;;;;;18.64;50.97;100646.31;4908076;28;97015;-51
2023/01/01 02:51:35;;;;;;;6.33;4.03;;;;;;;18.62;50.65;100644.06;4904756;28;101885;-54
2023/01/01 02:54:41;;;;;;;7.67;4.20;;;;;;;18.59;50.18;100647.19;4908297;28;101137;-51
2023/01/01 02:57:45;;;;;;;5.13;3.93;;;;;;;18.61;50.88;100647.38;4899800;28;97333;-52
2023/01/01 03:00:30;;;;;;;7.30;3.90;;;;;;;18.60;51.21;100657.81;4901245;28;97300;-52
2023/01/01 03:03:01;;;;;;;7.43;3.80;;;;;;;18.61;51.35;100652.97;4906040;28;102327;-53
2023/01/01 03:05:29;;;;;;;8.90;4.63;;;;;;;18.61;51.66;100652.97;4906759;28;96956;-51
2023/01/01 03:08:18;;;;;;;8.07;4.07;;;;;;;18.59;49.17;100639.59;4906216;28;97312;-54
2023/01/01 03:10:53;;;;;;;6.23;3.40;;;;;;;18.61;50.95;100636.25;4908031;28;97196;-51
2023/01/01 03:13:40;;;;;;;5.03;3.73;;;;;;;18.60;51.19;100634.78;4906614;28;96758;-52
2023/01/01 03:16:17;;;;;;;5.33;3.67;;;;;;;18.61;49.53;100641.81;4906496;28;101489;-52
2023/01/01 03:18:48;;;;;;;7.13;3.97;;;;;;;18.61;51.59;100639.78;4905388;28;96832;-54
2023/01/01 03:21:19;;;;;;;8.63;4.10;;;;;;;18.63;51.13;100631.63;4905573;28;97156;-52
2023/01/01 03:23:53;;;;;;;5.70;3.93;;;;;;;18.62;50.97;100627.34;4907237;28;97141;-53
2023/01/01 03:26:22;;;;;;;8.53;4.40;;;;;;;18.62;51.49;100627.34;4906674;28;96867;-52
2023/01/01 03:28:56;;;;;;;7.97;4.40;;;;;;;18.60;49.36;100637.56;4907050;28;97462;-54
2023/01/01 03:31:24;;;;;;;10.43;4.07;;;;;;;18.58;51.17;100640.91;4906695;28;96763;-52
2023/01/01 03:33:58;;;;;;;5.63;3.70;;;;;;;18.57;50.66;100641.44;4905519;28;96821;-52
2023/01/01 03:36:32;;;;;;;8.30;4.40;;;;;;;18.54;50.76;100628.59;4906029;28;97359;-55
2023/01/01 03:39:04;;;;;;;5.90;3.53;;;;;;;18.51;50.75;100632.47;4907432;28;98435;-53
2023/01/01 03:41:43;;;;;;;5.47;3.73;;;;;;;18.49;49.40;100635.81;4906645;28;96996;-52
2023/01/01 03:44:14;;;;;;;4.07;3.53;;;;;;;18.49;51.10;100632.28;4905441;28;97601;-55
2023/01/01 03:46:40;;;;;;;7.73;3.70;;;;;;;18.51;50.97;100646.41;4907102;28;97105;-53
2023/01/01 03:49:09;;;;;;;5.57;3.30;;;;;;;18.52;50.67;100640.28;4907680;28;97328;-53
2023/01/01 03:52:00;;;;;;;8.73;3.80;;;;;;;18.49;48.34;100649.75;4906596;28;97455;-52
2023/01/01 03:54:44;;;;;;;14.40;4.43;;;;;;;18.45;47.79;100643.03;4906579;28;97235;-52
2023/01/01 03:57:31;;;;;;;5.30;3.30;;;;;;;18.45;48.29;100634.69;4905900;28;100306;-53
2023/01/01 04:00:06;;;;;;;9.53;4.20;;;;;;;18.45;50.41;100648.59;4905166;28;97437;-53
2023/01/01 04:02:38;;;;;;;4.23;3.10;;;;;;;18.44;50.13;100652.66;4906751;28;97096;-52
2023/01/01 04:05:06;;;;;;;9.77;3.27;;;;;;;18.43;50.45;100660.28;4907233;28;98831;-51
2023/01/01 04:07:32;;;;;;;3.60;3.23;;;;;;;18.43;50.49;100665.09;4907289;28;97288;-51
2023/01/01 04:10:00;;;;;;;4.77;2.97;;;;;;;18.42;50.40;100663.59;4906156;28;96723;-52
2023/01/01 04:12:26;;;;;;;5.40;3.23;;;;;;;18.40;50.34;100674.53;4907663;28;97264;-53
2023/01/01 04:14:51;;;;;;;4.87;3.10;;;;;;;18.35;50.27;100665.03;4907318;28;97126;-52
2023/01/01 04:17:17;;;;;;;5.70;3.07;;;;;;;18.38;50.33;100671.56;4906555;28;97186;-52
2023/01/01 04:19:42;;;;;;;5.33;2.83;;;;;;;18.38;50.17;100677.13;4902513;28;97723;-52
2023/01/01 04:22:08;;;;;;;8.73;2.70;;;;;;;18.36;50.35;100674.91;4903044;28;97014;-55
2023/01/01 04:24:33;;;;;;;6.53;3.13;;;;;;;18.35;50.09;100665.03;4903465;28;96794;-55
2023/01/01 04:26:59;;;;;;;4.83;2.80;;;;;;;18.38;50.18;100677.88;4905518;28;97165;-51
2023/01/01 04:29:24;;;;;;;7.40;2.90;;;;;;;18.35;49.77;100667.81;4904762;28;97695;-53
2023/01/01 04:31:50;;;;;;;4.60;2.60;;;;;;;18.38;49.83;100677.13;4918713;28;96840;-51
2023/01/01 04:34:15;;;;;;;7.13;2.57;;;;;;;18.36;49.78;100676.94;4905584;28;97456;-52
2023/01/01 04:36:41;;;;;;;3.90;2.37;;;;;;;18.35;49.88;100683.78;4903650;28;96832;-52
2023/01/01 04:39:06;;;;;;;4.97;2.20;;;;;;;18.37;49.70;100687.50;4905669;28;97292;-51
2023/01/01 04:41:32;;;;;;;4.57;2.13;;;;;;;18.37;49.63;100676.38;4904585;28;97535;-52
2023/01/01 04:43:57;;;;;;;3.60;2.00;;;;;;;18.37;49.55;100687.50;4904481;28;97360;-51
2023/01/01 04:46:23;;;;;;;3.50;2.30;;;;;;;18.36;49.58;100694.41;4903999;28;97014;-52
2023/01/01 04:48:49;;;;;;;2.53;2.20;;;;;;;18.36;49.61;100713.13;4903798;28;97046;-51
2023/01/01 04:51:16;;;;;;;6.63;2.37;;;;;;;18.34;49.60;100710.91;4905066;28;97250;-52
2023/01/01 04:53:42;;;;;;;7.37;3.00;;;;;;;18.33;49.62;100705.84;4903789;28;97487;-51
2023/01/01 04:56:09;;;;;;;4.30;2.00;;;;;;;18.31;49.69;100683.38;4904410;28;96832;-52
2023/01/01 04:58:36;;;;;;;2.70;1.73;;;;;;;18.30;49.44;100701.41;4903782;28;97102;-51
2023/01/01 05:01:01;;;;;;;4.20;1.73;;;;;;;18.29;49.40;100703.44;4904820;28;97077;-51
2023/01/01 05:03:27;;;;;;;2.27;1.90;;;;;;;18.29;49.19;100699.88;4903707;28;97419;-55
2023/01/01 05:06:04;;;;;;;5.47;1.63;;;;;;;18.29;47.96;100705.47;4904474;28;97236;-52
2023/01/01 05:08:31;;;;;;;2.50;1.90;;;;;;;18.28;49.44;100713.06;4904895;28;97761;-51
2023/01/01 05:11:07;;;;;;;2.97;2.10;;;;;;;18.28;48.31;100712.34;4906138;28;97034;-55
2023/01/01 05:13:34;;;;;;;6.47;2.80;;;;;;;18.25;49.35;100711.38;4905737;28;97064;-50
2023/01/01 05:16:04;;;;;;;3.27;1.60;;;;;;;18.22;48.50;100720.06;4905641;28;99884;-55
2023/01/01 05:18:30;;;;;;;3.47;2.03;;;;;;;18.24;49.38;100711.94;4905253;28;97245;-52
2023/01/01 05:21:05;;;;;;;2.80;1.60;;;;;;;18.23;48.53;100697.25;4905385;28;96846;-53
2023/01/01 05:23:30;;;;;;;1.30;1.20;;;;;;;18.22;49.24;100692.22;4905396;28;97377;-51
2023/01/01 05:25:56;;;;;;;6.60;1.60;;;;;;;18.21;49.15;100690.72;4905185;28;97220;-51
2023/01/01 05:28:22;;;;;;;4.30;1.87;;;;;;;18.19;48.94;100698.88;4905125;28;96888;-51
2023/01/01 05:30:49;;;;;;;1.43;1.33;;;;;;;18.18;49.11;100697.38;4906317;28;97479;-52
2023/01/01 05:33:14;;;;;;;1.90;1.70;;;;;;;18.18;49.25;100706.50;4905563;28;97418;-52
2023/01/01 05:35:39;;;;;;;2.90;1.70;;;;;;;18.17;48.92;100705.00;4905576;28;97488;-53
2023/01/01 05:38:05;;;;;;;3.63;1.37;;;;;;;18.16;48.89;100725.03;4903583;28;99886;-52
2023/01/01 05:40:30;;;;;;;3.80;1.40;;;;;;;18.17;49.15;100726.53;4905082;28;97522;-51
2023/01/01 05:42:55;;;;;;;3.20;1.50;;;;;;;18.17;49.17;100735.63;4904666;28;98154;-51
2023/01/01 05:45:21;;;;;;;3.10;1.70;;;;;;;18.17;48.92;100749.56;4906457;28;97070;-52
2023/01/01 05:47:47;;;;;;;2.70;1.50;;;;;;;18.17;49.16;100757.16;4904927;28;97279;-51
2023/01/01 05:50:12;;;;;;;3.30;1.47;;;;;;;18.16;49.07;100764.75;4905017;28;97143;-52
2023/01/01 05:52:37;;;;;;;2.00;1.03;;;;;;;18.16;49.09;100761.22;4902821;28;99509;-51
2023/01/01 05:55:03;;;;;;;2.40;1.20;;;;;;;18.13;48.97;100763.06;4902289;28;97512;-52
2023/01/01 05:57:29;;;;;;;2.77;1.30;;;;;;;18.11;49.11;100771.19;4903665;28;97075;-51
2023/01/01 05:59:54;;;;;;;3.00;1.47;;;;;;;18.06;48.92;100772.09;4904764;28;97321;-52
2023/01/01 06:02:19;;;;;;;5.37;1.40;;;;;;;18.05;49.06;100778.94;4905144;28;97147;-51
2023/01/01 06:04:45;;;;;;;1.43;1.33;;;;;;;18.01;48.99;100777.78;4908956;28;97808;-52
2023/01/01 06:07:10;;;;;;;3.87;1.47;;;;;;;17.98;48.95;100762.91;4909348;28;96783;-51
2023/01/01 06:09:35;;;;;;;2.30;1.20;;;;;;;17.94;48.85;100768.81;4907530;28;97259;-51
2023/01/01 06:12:01;;;;;;;4.23;1.30;;;;;;;17.97;48.93;100770.50;4908523;28;97061;-53
2023/01/01 06:14:26;;;;;;;1.83;1.10;;;;;;;17.96;49.12;100777.38;4909029;28;97280;-52
2023/01/01 06:16:52;;;;;;;2.40;1.00;;;;;;;17.97;49.14;100784.41;4906372;28;96866;-52
2023/01/01 06:19:17;;;;;;;2.17;1.00;;;;;;;17.98;48.87;100777.56;4908385;28;97154;-51
2023/01/01 06:21:42;;;;;;;1.30;1.20;;;;;;;17.95;49.07;100798.13;4907812;28;97018;-51
2023/01/01 06:24:08;;;;;;;2.50;0.80;;;;;;;17.94;49.21;100796.66;4907784;28;96896;-51
2023/01/01 06:26:33;;;;;;;4.30;1.20;;;;;;;17.98;49.02;100799.09;4907969;28;97543;-52
2023/01/01 06:29:00;;;;;;;1.77;1.10;;;;;;;17.94;48.95;100793.88;4908521;28;97730;-50
2023/01/01 06:31:26;;;;;;;1.83;1.03;;;;;;;17.96;49.14;100787.75;4908354;28;97032;-51
2023/01/01 06:33:52;;;;;;;4.10;1.10;;;;;;;17.94;49.02;100790.34;4908331;28;97196;-52
2023/01/01 06:36:20;;;;;;;2.10;1.07;;;;;;;17.93;49.00;100797.94;4907905;28;96810;-51
2023/01/01 06:38:48;;;;;;;1.67;1.20;;;;;;;17.94;48.91;100802.22;4907817;28;97406;-51
2023/01/01 06:41:19;;;;;;;2.67;1.30;;;;;;;17.95;48.08;100795.34;4906037;28;97401;-52
2023/01/01 06:43:45;;;;;;;1.33;0.93;;;;;;;17.95;49.08;100794.63;4908157;28;98056;-53
2023/01/01 06:46:26;;;;;;;2.83;0.90;;;;;;;17.93;48.57;100786.78;4907056;28;96984;-52
2023/01/01 06:48:56;;;;;;;3.37;1.10;;;;;;;17.92;48.39;100787.34;4908466;28;97261;-51
2023/01/01 06:51:27;;;;;;;2.20;1.07;;;;;;;17.91;48.40;100777.47;4905967;28;97552;-51
2023/01/01 06:53:54;;;;;;;1.07;0.90;;;;;;;17.89;49.23;100786.38;4906697;28;97046;-53
2023/01/01 06:56:20;;;;;;;1.20;0.93;;;;;;;17.90;49.30;100793.47;4908143;28;96938;-53
2023/01/01 06:58:45;;;;;;;2.10;0.80;;;;;;;17.88;49.19;100796.03;4907818;28;96891;-54
2023/01/01 07:01:20;;;;;;;4.13;1.10;;;;;;;17.89;48.45;100830.91;4906981;28;97577;-52
2023/01/01 07:03:56;;;;;;;1.33;0.77;;;;;;;17.90;48.10;100828.91;4907523;28;101888;-52
2023/01/01 07:06:22;;;;;;;3.00;0.80;;;;;;;17.88;49.31;100829.44;4905681;28;96896;-53
2023/01/01 07:08:48;;;;;;;1.33;0.83;;;;;;;17.88;49.26;100828.69;4907873;28;96920;-52
2023/01/01 07:11:14;;;;;;;1.60;0.80;;;;;;;17.89;49.43;100828.13;4905837;28;96971;-52
2023/01/01 07:13:39;;;;;;;1.40;0.83;;;;;;;17.88;49.35;100826.66;4907030;28;97877;-52
2023/01/01 07:16:06;;;;;;;1.03;0.83;;;;;;;17.88;49.25;100832.22;4906888;28;97399;-52
2023/01/01 07:18:31;;;;;;;2.10;1.20;;;;;;;17.88;49.12;100843.34;4908521;28;97346;-51
2023/01/01 07:20:59;;;;;;;0.87;0.80;;;;;;;17.88;49.29;100853.72;4905832;28;97060;-52
2023/01/01 07:23:26;;;;;;;1.60;0.90;;;;;;;17.86;49.42;100851.50;4904909;28;98009;-52
2023/01/01 07:25:52;;;;;;;1.30;0.80;;;;;;;17.84;49.27;100865.19;4906512;28;97354;-52
2023/01/01 07:28:19;;;;;;;1.77;1.00;;;;;;;17.86;49.21;100865.41;4906126;28;97432;-51
2023/01/01 07:30:44;;;;;;;2.03;0.63;;;;;;;17.89;49.34;100878.25;4907031;28;97560;-51
2023/01/01 07:33:11;;;;;;;1.23;0.60;;;;;;;17.89;49.29;100885.84;4906951;28;97429;-52
2023/01/01 07:35:37;;;;;;;1.63;0.77;;;;;;;17.86;49.33;100898.06;4907914;28;96859;-51
2023/01/01 07:38:02;;;;;;;2.50;0.83;;;;;;;17.86;49.34;100884.16;4905758;28;97111;-51
2023/01/01 07:40:28;;;;;;;1.47;0.90;;;;;;;17.88;49.05;100895.50;4904994;28;97781;-51
2023/01/01 07:42:53;;;;;;;1.47;0.90;;;;;;;17.88;49.30;100904.59;4905832;28;97768;-51
2023/01/01 07:45:18;;;;;;;1.43;1.00;;;;;;;17.88;49.44;100910.16;4906476;28;97067;-51
2023/01/01 07:47:49;;;;;;;3.07;1.20;;;;;;;17.89;49.06;100922.03;4907387;28;97077;-52
2023/01/01 07:50:16;;;;;;;1.13;0.80;;;;;;;17.86;49.18;100935.00;4905968;28;97462;-51
2023/01/01 07:52:41;;;;;;;3.70;1.00;;;;;;;17.86;49.36;100935.00;4907068;28;97133;-54
2023/01/01 07:55:11;;;;;;;2.57;0.73;;;;;;;17.90;48.99;100945.81;4905947;28;97503;-51
2023/01/01 07:57:36;;;;;;;1.53;0.60;;;;;;;17.91;49.30;100945.25;4906876;28;97365;-53
2023/01/01 08:00:01;;;;;;;2.30;1.10;;;;;;;17.87;49.06;100925.34;4905853;28;100443;-51
2023/01/01 08:02:27;;;;;;;1.10;0.87;;;;;;;17.89;49.48;100938.72;4903683;28;97768;-52
2023/01/01 08:04:52;;;;;;;2.30;0.80;;;;;;;17.90;49.32;100940.25;4906064;28;100635;-52
2023/01/01 08:07:17;;;;;;;4.87;1.00;;;;;;;17.92;49.49;100946.03;4905656;28;97022;-51
2023/01/01 08:09:43;;;;;;;3.57;1.10;;;;;;;17.87;49.23;100950.41;4907916;28;96846;-52
2023/01/01 08:12:08;;;;;;;1.37;0.90;;;;;;;17.87;49.45;100958.00;4905651;28;97077;-52
2023/01/01 08:14:33;;;;;;;3.00;1.07;;;;;;;17.88;49.66;100956.72;4907594;28;97111;-51
2023/01/01 08:16:59;;;;;;;1.07;0.83;;;;;;;17.88;49.66;100959.50;4907131;28;97392;-51
2023/01/01 08:19:24;;;;;;;2.27;0.90;;;;;;;17.89;49.66;100966.56;4906433;28;97480;-51
2023/01/01 08:21:50;;;;;;;1.97;0.93;;;;;;;17.90;49.73;100979.97;4907338;28;97822;-52
2023/01/01 08:24:15;;;;;;;1.43;0.83;;;;;;;17.88;49.68;100971.41;4906413;28;97370;-52
2023/01/01 08:26:41;;;;;;;2.13;1.10;;;;;;;17.89;49.71;100984.03;4905474;28;97322;-52
2023/01/01 08:29:06;;;;;;;1.03;0.70;;;;;;;17.87;49.70;100986.59;4904174;28;97373;-51
2023/01/01 08:31:32;;;;;;;0.90;0.80;;;;;;;17.88;49.65;100988.09;4906713;28;97009;-52
2023/01/01 08:33:58;;;;;;;1.53;0.70;;;;;;;17.85;49.77;100975.25;4905974;28;96822;-52
2023/01/01 08:36:23;;;;;;;2.60;0.90;;;;;;;17.89;49.82;100986.81;4906448;28;97093;-51
2023/01/01 08:38:49;;;;;;;1.87;0.97;;;;;;;17.89;49.67;100988.84;4904376;28;97442;-51
2023/01/01 08:41:15;;;;;;;2.40;1.00;;;;;;;17.89;49.88;100988.84;4906350;28;97135;-51
2023/01/01 08:43:40;;;;;;;1.10;0.70;;;;;;;17.88;49.84;100999.25;4905269;28;97131;-52
2023/01/01 08:46:05;;;;;;;1.27;0.70;;;;;;;17.90;50.01;101007.81;4907473;28;97281;-52
2023/01/01 08:48:31;;;;;;;1.53;0.80;;;;;;;17.90;49.99;101002.25;4905161;28;97567;-51
2023/01/01 08:51:01;;;;;;;6.77;1.20;;;;;;;17.90;49.84;101002.25;4906116;28;97156;-52
2023/01/01 08:53:31;;;;;;;6.60;1.27;;;;;;;17.94;49.81;101018.63;4904983;28;97396;-52
2023/01/01 08:56:05;;;;;;;1.77;1.17;;;;;;;17.95;49.75;101026.41;4906105;28;97001;-52
2023/01/01 08:58:32;;;;;;;3.17;0.93;;;;;;;17.96;49.97;101033.50;4905021;28;101758;-52
2023/01/01 09:00:58;;;;;;;2.60;1.10;;;;;;;17.96;49.89;101032.75;4906188;28;97204;-53
2023/01/01 09:03:24;;;;;;;0.93;0.60;;;;;;;17.93;50.02;101039.41;4900326;28;98867;-52
2023/01/01 09:05:50;;;;;;;1.17;0.83;;;;;;;17.91;50.02;101053.06;4907069;28;97153;-52
2023/01/01 09:08:15;;;;;;;2.00;0.80;;;;;;;17.86;50.19;101051.91;4906033;28;97315;-51
2023/01/01 09:10:42;;;;;;;1.97;0.80;;;;;;;17.84;50.20;101060.03;4905870;28;97561;-51
2023/01/01 09:13:11;;;;;;;2.23;1.20;;;;;;;17.83;50.40;101069.66;4904674;28;97108;-52
2023/01/01 09:15:37;;;;;;;1.97;1.03;;;;;;;17.85;50.41;101081.03;4902378;28;98272;-51
2023/01/01 09:18:03;;;;;;;1.43;1.00;;;;;;;17.84;50.46;101084.34;4902256;28;97716;-51
2023/01/01 09:20:29;;;;;;;1.20;1.00;;;;;;;17.84;50.39;101096.22;4906314;28;98127;-52
2023/01/01 09:22:54;;;;;;;1.00;0.80;;;;;;;17.83;50.54;101088.41;4905623;28;97250;-52
2023/01/01 09:25:19;;;;;;;1.70;0.83;;;;;;;17.80;50.62;101101.34;4905683;28;97502;-51
2023/01/01 09:27:44;;;;;;;5.03;0.90;;;;;;;17.79;50.59;101108.22;4905331;28;97077;-52
2023/01/01 09:30:10;;;;;;;6.40;1.43;;;;;;;17.76;50.52;101116.84;4894274;28;97385;-51
2023/01/01 09:32:36;;;;;;;2.20;0.87;;;;;;;17.74;50.82;101122.19;4904518;28;96750;-52
2023/01/01 09:35:02;;;;;;;3.27;1.30;;;;;;;17.70;50.82;101125.31;4905201;28;96987;-51
2023/01/01 09:37:27;;;;;;;5.97;1.10;;;;;;;17.63;50.88;101142.63;4904854;28;100141;-51
2023/01/01 09:39:53;;;;;;;2.43;0.70;;;;;;;17.57;50.99;101161.44;4904092;28;97602;-51
2023/01/01 09:42:24;;;;;;;2.13;0.90;;;;;;;17.50;49.84;101169.59;4903889;28;97301;-52
2023/01/01 09:45:08;;;;;;;1.50;0.83;;;;;;;17.39;50.48;101153.81;4905314;28;96861;-53
2023/01/01 09:47:37;;;;;;;2.20;0.73;;;;;;;17.29;50.79;101157.50;4903746;28;97798;-51
2023/01/01 09:50:10;;;;;;;1.60;0.93;;;;;;;17.18;51.04;101158.41;4904492;28;96757;-53
2023/01/01 09:52:56;;;;;;;3.53;1.00;;;;;;;17.11;51.52;101172.91;4905157;28;96835;-52
2023/01/01 09:55:27;;;;;;;0.90;0.67;;;;;;;17.07;51.79;101173.22;4899231;28;97016;-51
2023/01/01 09:57:54;;;;;;;1.30;0.97;;;;;;;17.08;51.93;101166.38;4903228;28;97396;-53
2023/01/01 10:00:20;;;;;;;2.97;1.20;;;;;;;17.10;52.04;101169.38;4902307;28;99691;-52
2023/01/01 10:02:58;;;;;;;2.33;0.83;;;;;;;17.11;52.09;101172.91;4905501;28;96668;-53
2023/01/01 10:05:47;;;;;;;1.53;1.03;;;;;;;17.08;52.46;101193.44;4904255;28;97273;-53
2023/01/01 10:08:40;;;;;;;2.63;1.00;;;;;;;17.10;52.15;101188.84;4903795;28;100538;-52
2023/01/01 10:11:12;;;;;;;3.70;0.97;;;;;;;17.08;52.29;101196.94;4904082;28;100207;-51
2023/01/01 10:13:42;;;;;;;0.77;0.77;;;;;;;17.03;52.35;101188.69;4902872;28;97170;-53
2023/01/01 10:16:23;;;;;;;0.90;0.80;;;;;;;17.02;52.29;101164.94;4904012;28;97025;-57
2023/01/01 10:18:53;;;;;;;1.93;0.90;;;;;;;16.99;52.44;101174.34;4904883;28;97330;-51
2023/01/01 10:21:31;;;;;;;1.90;1.00;;;;;;;16.98;52.21;101186.72;4903722;28;97216;-52
2023/01/01 10:24:03;;;;;;;1.43;0.90;;;;;;;16.95;52.33;101196.13;4903607;28;97966;-53
2023/01/01 10:26:30;;;;;;;0.93;0.83;;;;;;;16.96;52.33;101192.06;4904966;28;96956;-53
2023/01/01 10:29:07;;;;;;;1.53;0.90;;;;;;;16.98;51.87;101186.72;4903479;28;97968;-52
2023/01/01 10:31:37;;;;;;;3.00;0.80;;;;;;;16.96;52.25;101189.28;4902446;28;97016;-53
2023/01/01 10:34:15;;;;;;;1.33;0.90;;;;;;;16.94;51.70;101200.19;4903064;28;96711;-53
2023/01/01 10:36:44;;;;;;;0.80;0.80;;;;;;;16.89;51.91;101196.19;4904574;28;97044;-52
2023/01/01 10:39:17;;;;;;;1.63;1.10;;;;;;;16.86;51.36;101190.94;4903760;28;97440;-52
2023/01/01 10:41:43;;;;;;;1.23;0.77;;;;;;;16.83;51.69;101189.19;4902633;28;97225;-52
2023/01/01 10:44:11;;;;;;;1.03;0.90;;;;;;;16.76;51.89;101176.63;4902844;28;97147;-52
2023/01/01 10:46:43;;;;;;;1.43;0.70;;;;;;;16.72;51.53;101175.41;4902621;28;97346;-53
2023/01/01 10:49:11;;;;;;;3.77;0.70;;;;;;;16.65;51.89;101175.97;4903775;28;98105;-51
2023/01/01 10:51:48;;;;;;;1.80;0.60;;;;;;;16.68;51.32;101184.06;4905940;28;97648;-52
2023/01/01 10:54:36;;;;;;;1.40;0.73;;;;;;;16.66;51.28;101171.94;4904725;28;97355;-52
2023/01/01 10:57:14;;;;;;;0.60;0.47;;;;;;;16.65;51.20;101171.19;4907803;28;97227;-52
2023/01/01 10:59:42;;;;;;;2.10;0.80;;;;;;;16.65;51.85;101170.44;4904222;28;100748;-51
2023/01/01 11:02:17;;;;;;;0.77;0.50;;;;;;;16.64;51.06;101180.81;4906080;28;97310;-51
2023/01/01 11:04:43;;;;;;;1.07;0.70;;;;;;;16.61;51.74;101190.19;4906656;28;98438;-51
2023/01/01 11:07:13;;;;;;;2.10;0.87;;;;;;;16.56;51.91;101179.09;4905974;28;97135;-52
2023/01/01 11:09:38;;;;;;;1.47;0.70;;;;;;;16.56;51.79;101195.78;4905455;28;97283;-52
2023/01/01 11:12:07;;;;;;;1.13;0.80;;;;;;;16.54;51.87;101192.78;4907015;28;96874;-53
2023/01/01 11:14:52;;;;;;;0.60;0.40;;;;;;;16.53;51.76;101192.03;4907884;28;97032;-51
2023/01/01 11:17:27;;;;;;;2.20;0.60;;;;;;;16.56;51.61;101190.22;4905590;28;96919;-53
2023/01/01 11:19:53;;;;;;;0.80;0.50;;;;;;;16.54;51.82;101199.09;4906599;28;97522;-51
2023/01/01 11:22:44;;;;;;;1.80;0.73;;;;;;;16.54;51.43;101192.78;4905966;28;97244;-52
2023/01/01 11:25:21;;;;;;;0.90;0.53;;;;;;;16.49;51.99;101203.38;4903382;28;99077;-51
2023/01/01 11:27:48;;;;;;;1.10;0.50;;;;;;;16.47;52.27;101202.41;4905793;28;97497;-51
2023/01/01 11:30:21;;;;;;;1.63;0.50;;;;;;;16.40;52.20;101200.94;4906557;28;97505;-52
2023/01/01 11:32:48;;;;;;;1.43;0.70;;;;;;;16.35;52.35;101209.34;4906579;28;97109;-52